sensor_id;sensor_type;location;lat;lon;timestamp;P1;durP1;ratioP1;P2;durP2;ratioP2
46014;SDS011;36844;51.898;-0.874;2023-06-22T00:00:43;2.30;;;1.95;;
46014;SDS011;36844;51.898;-0.874;2023-06-22T00:03:09;4.72;;;2.63;;
46014;SDS011;36844;51.898;-0.874;2023-06-22T00:05:35;5.28;;;2.60;;
46014;SDS011;36844;51.898;-0.874;2023-06-22T00:08:03;3.90;;;2.70;;
46014;SDS011;36844;51.898;-0.874;2023-06-22T00:10:29;5.45;;;2.47;;
46014;SDS011;36844;51.898;-0.874;2023-06-22T00:12:55;3.13;;;2.10;;
46014;SDS011;36844;51.898;-0.874;2023-06-22T00:15:20;4.28;;;2.42;;
46014;SDS011;36844;51.898;-0.874;2023-06-22T00:17:45;2.80;;;2.30;;
46014;SDS011;36844;51.898;-0.874;2023-06-22T00:20:11;3.33;;;2.50;;
46014;SDS011;36844;51.898;-0.874;2023-06-22T00:22:36;4.32;;;2.47;;
46014;SDS011;36844;51.898;-0.874;2023-06-22T00:25:07;4.65;;;2.30;;
46014;SDS011;36844;51.898;-0.874;2023-06-22T00:27:32;3.45;;;2.00;;
46014;SDS011;36844;51.898;-0.874;2023-06-22T00:29:58;3.10;;;2.33;;
46014;SDS011;36844;51.898;-0.874;2023-06-22T00:32:23;3.83;;;2.45;;
46014;SDS011;36844;51.898;-0.874;2023-06-22T00:34:48;3.50;;;2.40;;
46014;SDS011;36844;51.898;-0.874;2023-06-22T00:37:15;4.28;;;2.40;;
46014;SDS011;36844;51.898;-0.874;2023-06-22T00:39:41;5.93;;;2.13;;
46014;SDS011;36844;51.898;-0.874;2023-06-22T00:42:06;4.78;;;2.38;;
46014;SDS011;36844;51.898;-0.874;2023-06-22T00:44:32;4.55;;;2.28;;
46014;SDS011;36844;51.898;-0.874;2023-06-22T00:46:57;4.00;;;2.00;;
46014;SDS011;36844;51.898;-0.874;2023-06-22T00:49:23;2.55;;;1.90;;
46014;SDS011;36844;51.898;-0.874;2023-06-22T00:51:48;4.00;;;2.45;;
46014;SDS011;36844;51.898;-0.874;2023-06-22T00:54:14;2.85;;;2.25;;
46014;SDS011;36844;51.898;-0.874;2023-06-22T00:56:40;4.68;;;2.22;;
46014;SDS011;36844;51.898;-0.874;2023-06-22T00:59:06;3.60;;;2.38;;
46014;SDS011;36844;51.898;-0.874;2023-06-22T01:01:31;3.80;;;2.60;;
46014;SDS011;36844;51.898;-0.874;2023-06-22T01:03:57;4.18;;;2.30;;
46014;SDS011;36844;51.898;-0.874;2023-06-22T01:06:26;5.95;;;2.58;;
46014;SDS011;36844;51.898;-0.874;2023-06-22T01:09:00;2.75;;;2.13;;
46014;SDS011;36844;51.898;-0.874;2023-06-22T01:11:37;2.95;;;2.30;;
46014;SDS011;36844;51.898;-0.874;2023-06-22T01:14:12;5.28;;;2.08;;
46014;SDS011;36844;51.898;-0.874;2023-06-22T01:16:44;2.47;;;2.20;;
46014;SDS011;36844;51.898;-0.874;2023-06-22T01:22:00;2.90;;;2.00;;
46014;SDS011;36844;51.898;-0.874;2023-06-22T01:24:32;1.80;;;1.65;;
46014;SDS011;36844;51.898;-0.874;2023-06-22T01:29:48;2.45;;;2.25;;
46014;SDS011;36844;51.898;-0.874;2023-06-22T01:32:16;3.78;;;2.47;;
46014;SDS011;36844;51.898;-0.874;2023-06-22T01:34:42;3.75;;;2.22;;
46014;SDS011;36844;51.898;-0.874;2023-06-22T01:37:08;2.35;;;2.15;;
46014;SDS011;36844;51.898;-0.874;2023-06-22T01:39:34;3.08;;;2.22;;
46014;SDS011;36844;51.898;-0.874;2023-06-22T01:42:00;4.57;;;2.25;;
46014;SDS011;36844;51.898;-0.874;2023-06-22T01:44:26;3.95;;;2.60;;
46014;SDS011;36844;51.898;-0.874;2023-06-22T01:46:52;2.50;;;2.20;;
46014;SDS011;36844;51.898;-0.874;2023-06-22T01:49:18;3.65;;;2.10;;
46014;SDS011;36844;51.898;-0.874;2023-06-22T01:51:44;4.47;;;2.03;;
46014;SDS011;36844;51.898;-0.874;2023-06-22T01:54:09;3.60;;;2.33;;
46014;SDS011;36844;51.898;-0.874;2023-06-22T01:56:34;3.80;;;2.30;;
46014;SDS011;36844;51.898;-0.874;2023-06-22T02:01:54;3.10;;;1.80;;
46014;SDS011;36844;51.898;-0.874;2023-06-22T02:04:48;5.25;;;2.00;;
46014;SDS011;36844;51.898;-0.874;2023-06-22T02:07:20;1.95;;;1.75;;
46014;SDS011;36844;51.898;-0.874;2023-06-22T02:09:48;3.55;;;2.42;;
46014;SDS011;36844;51.898;-0.874;2023-06-22T02:12:17;3.90;;;2.40;;
46014;SDS011;36844;51.898;-0.874;2023-06-22T02:14:46;2.92;;;2.30;;
46014;SDS011;36844;51.898;-0.874;2023-06-22T02:17:12;3.78;;;2.92;;
46014;SDS011;36844;51.898;-0.874;2023-06-22T02:19:38;2.72;;;2.08;;
46014;SDS011;36844;51.898;-0.874;2023-06-22T02:22:05;4.65;;;1.75;;
46014;SDS011;36844;51.898;-0.874;2023-06-22T02:24:31;3.08;;;2.75;;
46014;SDS011;36844;51.898;-0.874;2023-06-22T02:26:58;4.78;;;2.13;;
46014;SDS011;36844;51.898;-0.874;2023-06-22T02:29:24;3.90;;;2.25;;
46014;SDS011;36844;51.898;-0.874;2023-06-22T02:31:49;4.53;;;2.30;;
46014;SDS011;36844;51.898;-0.874;2023-06-22T02:34:14;2.85;;;2.55;;
46014;SDS011;36844;51.898;-0.874;2023-06-22T02:36:43;4.95;;;2.33;;
46014;SDS011;36844;51.898;-0.874;2023-06-22T02:39:16;2.80;;;2.08;;
46014;SDS011;36844;51.898;-0.874;2023-06-22T02:41:45;5.68;;;2.35;;
46014;SDS011;36844;51.898;-0.874;2023-06-22T02:44:10;3.15;;;2.45;;
46014;SDS011;36844;51.898;-0.874;2023-06-22T02:46:36;4.22;;;2.13;;
46014;SDS011;36844;51.898;-0.874;2023-06-22T02:49:01;3.50;;;2.30;;
46014;SDS011;36844;51.898;-0.874;2023-06-22T02:51:26;2.45;;;1.80;;
46014;SDS011;36844;51.898;-0.874;2023-06-22T02:53:52;2.67;;;2.42;;
46014;SDS011;36844;51.898;-0.874;2023-06-22T02:56:22;3.28;;;2.15;;
46014;SDS011;36844;51.898;-0.874;2023-06-22T02:58:50;3.92;;;2.60;;
46014;SDS011;36844;51.898;-0.874;2023-06-22T03:01:15;2.60;;;2.00;;
46014;SDS011;36844;51.898;-0.874;2023-06-22T03:03:41;2.70;;;2.30;;
46014;SDS011;36844;51.898;-0.874;2023-06-22T03:06:06;5.63;;;2.13;;
46014;SDS011;36844;51.898;-0.874;2023-06-22T03:08:31;2.88;;;2.08;;
46014;SDS011;36844;51.898;-0.874;2023-06-22T03:10:57;3.33;;;2.17;;
46014;SDS011;36844;51.898;-0.874;2023-06-22T03:13:22;3.47;;;2.00;;
46014;SDS011;36844;51.898;-0.874;2023-06-22T03:15:48;2.28;;;2.08;;
46014;SDS011;36844;51.898;-0.874;2023-06-22T03:18:13;3.17;;;2.47;;
46014;SDS011;36844;51.898;-0.874;2023-06-22T03:20:38;2.35;;;2.00;;
46014;SDS011;36844;51.898;-0.874;2023-06-22T03:23:04;3.83;;;2.00;;
46014;SDS011;36844;51.898;-0.874;2023-06-22T03:25:30;3.90;;;2.03;;
46014;SDS011;36844;51.898;-0.874;2023-06-22T03:27:55;3.40;;;1.85;;
46014;SDS011;36844;51.898;-0.874;2023-06-22T03:30:20;4.00;;;2.50;;
46014;SDS011;36844;51.898;-0.874;2023-06-22T03:32:46;6.10;;;2.38;;
46014;SDS011;36844;51.898;-0.874;2023-06-22T03:35:11;3.28;;;2.20;;
46014;SDS011;36844;51.898;-0.874;2023-06-22T03:37:38;3.25;;;2.50;;
46014;SDS011;36844;51.898;-0.874;2023-06-22T03:40:04;2.53;;;2.28;;
46014;SDS011;36844;51.898;-0.874;2023-06-22T03:42:30;4.70;;;2.92;;
46014;SDS011;36844;51.898;-0.874;2023-06-22T03:44:56;4.45;;;2.40;;
46014;SDS011;36844;51.898;-0.874;2023-06-22T03:47:21;3.88;;;2.17;;
46014;SDS011;36844;51.898;-0.874;2023-06-22T03:49:47;2.97;;;2.38;;
46014;SDS011;36844;51.898;-0.874;2023-06-22T03:52:12;4.40;;;2.22;;
46014;SDS011;36844;51.898;-0.874;2023-06-22T03:54:38;4.80;;;2.30;;
46014;SDS011;36844;51.898;-0.874;2023-06-22T03:57:03;2.45;;;2.13;;
46014;SDS011;36844;51.898;-0.874;2023-06-22T03:59:29;2.83;;;2.25;;
46014;SDS011;36844;51.898;-0.874;2023-06-22T04:01:54;6.03;;;2.35;;
46014;SDS011;36844;51.898;-0.874;2023-06-22T04:04:19;3.40;;;2.30;;
46014;SDS011;36844;51.898;-0.874;2023-06-22T04:06:45;3.80;;;2.03;;
46014;SDS011;36844;51.898;-0.874;2023-06-22T04:09:11;5.22;;;2.45;;
46014;SDS011;36844;51.898;-0.874;2023-06-22T04:11:36;2.13;;;1.92;;
46014;SDS011;36844;51.898;-0.874;2023-06-22T04:14:01;3.03;;;2.33;;
46014;SDS011;36844;51.898;-0.874;2023-06-22T04:16:27;6.05;;;2.22;;
46014;SDS011;36844;51.898;-0.874;2023-06-22T04:18:52;3.08;;;2.03;;
46014;SDS011;36844;51.898;-0.874;2023-06-22T04:21:17;3.35;;;1.95;;
46014;SDS011;36844;51.898;-0.874;2023-06-22T04:23:44;5.05;;;2.45;;
46014;SDS011;36844;51.898;-0.874;2023-06-22T04:26:11;2.83;;;2.30;;
46014;SDS011;36844;51.898;-0.874;2023-06-22T04:28:36;4.68;;;2.10;;
46014;SDS011;36844;51.898;-0.874;2023-06-22T04:31:02;3.47;;;2.08;;
46014;SDS011;36844;51.898;-0.874;2023-06-22T04:33:28;3.65;;;2.47;;
46014;SDS011;36844;51.898;-0.874;2023-06-22T04:35:54;4.00;;;2.20;;
46014;SDS011;36844;51.898;-0.874;2023-06-22T04:38:22;3.35;;;2.45;;
46014;SDS011;36844;51.898;-0.874;2023-06-22T04:40:47;3.08;;;2.13;;
46014;SDS011;36844;51.898;-0.874;2023-06-22T04:43:13;3.15;;;2.45;;
46014;SDS011;36844;51.898;-0.874;2023-06-22T04:45:38;4.60;;;2.00;;
46014;SDS011;36844;51.898;-0.874;2023-06-22T04:48:04;2.53;;;2.20;;
46014;SDS011;36844;51.898;-0.874;2023-06-22T04:50:30;7.13;;;2.72;;
46014;SDS011;36844;51.898;-0.874;2023-06-22T04:52:55;4.13;;;2.28;;
46014;SDS011;36844;51.898;-0.874;2023-06-22T04:55:21;3.95;;;2.20;;
46014;SDS011;36844;51.898;-0.874;2023-06-22T04:57:46;3.83;;;2.38;;
46014;SDS011;36844;51.898;-0.874;2023-06-22T05:00:18;3.88;;;2.08;;
46014;SDS011;36844;51.898;-0.874;2023-06-22T05:02:45;3.22;;;2.35;;
46014;SDS011;36844;51.898;-0.874;2023-06-22T05:05:11;3.30;;;2.60;;
46014;SDS011;36844;51.898;-0.874;2023-06-22T05:07:42;2.83;;;2.08;;
46014;SDS011;36844;51.898;-0.874;2023-06-22T05:10:09;2.95;;;2.40;;
46014;SDS011;36844;51.898;-0.874;2023-06-22T05:12:36;6.10;;;3.20;;
46014;SDS011;36844;51.898;-0.874;2023-06-22T05:15:02;4.13;;;2.30;;
46014;SDS011;36844;51.898;-0.874;2023-06-22T05:17:27;4.38;;;2.60;;
46014;SDS011;36844;51.898;-0.874;2023-06-22T05:19:53;3.10;;;2.63;;
46014;SDS011;36844;51.898;-0.874;2023-06-22T05:22:19;3.30;;;2.40;;
46014;SDS011;36844;51.898;-0.874;2023-06-22T05:24:45;4.38;;;3.15;;
46014;SDS011;36844;51.898;-0.874;2023-06-22T05:27:11;4.20;;;2.90;;
46014;SDS011;36844;51.898;-0.874;2023-06-22T05:29:36;5.55;;;2.58;;
46014;SDS011;36844;51.898;-0.874;2023-06-22T05:32:02;3.40;;;2.47;;
46014;SDS011;36844;51.898;-0.874;2023-06-22T05:34:28;5.03;;;3.22;;
46014;SDS011;36844;51.898;-0.874;2023-06-22T05:36:53;3.75;;;2.92;;
46014;SDS011;36844;51.898;-0.874;2023-06-22T05:39:19;6.70;;;3.00;;
46014;SDS011;36844;51.898;-0.874;2023-06-22T05:41:45;4.93;;;3.70;;
46014;SDS011;36844;51.898;-0.874;2023-06-22T05:44:11;3.97;;;2.92;;
46014;SDS011;36844;51.898;-0.874;2023-06-22T05:46:40;3.20;;;2.90;;
46014;SDS011;36844;51.898;-0.874;2023-06-22T05:49:09;6.78;;;4.30;;
46014;SDS011;36844;51.898;-0.874;2023-06-22T05:51:35;4.22;;;2.65;;
46014;SDS011;36844;51.898;-0.874;2023-06-22T05:54:00;6.38;;;3.58;;
46014;SDS011;36844;51.898;-0.874;2023-06-22T05:56:25;4.78;;;3.42;;
46014;SDS011;36844;51.898;-0.874;2023-06-22T05:58:50;6.40;;;2.83;;
46014;SDS011;36844;51.898;-0.874;2023-06-22T06:01:16;2.80;;;2.53;;
46014;SDS011;36844;51.898;-0.874;2023-06-22T06:03:41;4.55;;;2.85;;
46014;SDS011;36844;51.898;-0.874;2023-06-22T06:06:07;5.93;;;2.95;;
46014;SDS011;36844;51.898;-0.874;2023-06-22T06:08:32;4.55;;;2.88;;
46014;SDS011;36844;51.898;-0.874;2023-06-22T06:10:58;4.32;;;3.00;;
46014;SDS011;36844;51.898;-0.874;2023-06-22T06:13:23;4.07;;;2.90;;
46014;SDS011;36844;51.898;-0.874;2023-06-22T06:15:49;5.15;;;3.33;;
46014;SDS011;36844;51.898;-0.874;2023-06-22T06:18:16;3.90;;;3.00;;
46014;SDS011;36844;51.898;-0.874;2023-06-22T06:20:41;3.25;;;2.53;;
46014;SDS011;36844;51.898;-0.874;2023-06-22T06:23:07;3.58;;;2.88;;
46014;SDS011;36844;51.898;-0.874;2023-06-22T06:25:32;4.75;;;2.97;;
46014;SDS011;36844;51.898;-0.874;2023-06-22T06:27:57;6.00;;;3.72;;
46014;SDS011;36844;51.898;-0.874;2023-06-22T06:30:23;4.40;;;3.13;;
46014;SDS011;36844;51.898;-0.874;2023-06-22T06:32:49;3.65;;;2.67;;
46014;SDS011;36844;51.898;-0.874;2023-06-22T06:35:14;3.92;;;2.92;;
46014;SDS011;36844;51.898;-0.874;2023-06-22T06:37:47;5.65;;;3.28;;
46014;SDS011;36844;51.898;-0.874;2023-06-22T06:40:13;3.20;;;2.40;;
46014;SDS011;36844;51.898;-0.874;2023-06-22T06:42:49;3.33;;;2.42;;
46014;SDS011;36844;51.898;-0.874;2023-06-22T06:45:18;5.20;;;2.80;;
46014;SDS011;36844;51.898;-0.874;2023-06-22T06:47:44;4.75;;;3.03;;
46014;SDS011;36844;51.898;-0.874;2023-06-22T06:50:10;5.63;;;3.55;;
46014;SDS011;36844;51.898;-0.874;2023-06-22T06:52:36;5.50;;;3.38;;
46014;SDS011;36844;51.898;-0.874;2023-06-22T06:55:01;3.80;;;3.03;;
46014;SDS011;36844;51.898;-0.874;2023-06-22T06:57:29;4.97;;;3.20;;
46014;SDS011;36844;51.898;-0.874;2023-06-22T06:59:55;12.52;;;3.55;;
46014;SDS011;36844;51.898;-0.874;2023-06-22T07:02:21;5.20;;;2.65;;
46014;SDS011;36844;51.898;-0.874;2023-06-22T07:04:47;4.50;;;2.95;;
46014;SDS011;36844;51.898;-0.874;2023-06-22T07:07:12;4.00;;;3.10;;
46014;SDS011;36844;51.898;-0.874;2023-06-22T07:09:37;4.80;;;2.80;;
46014;SDS011;36844;51.898;-0.874;2023-06-22T07:12:03;4.95;;;2.95;;
46014;SDS011;36844;51.898;-0.874;2023-06-22T07:14:28;4.75;;;2.88;;
46014;SDS011;36844;51.898;-0.874;2023-06-22T07:16:53;4.07;;;2.50;;
46014;SDS011;36844;51.898;-0.874;2023-06-22T07:19:29;7.10;;;4.10;;
46014;SDS011;36844;51.898;-0.874;2023-06-22T07:21:56;10.18;;;4.25;;
46014;SDS011;36844;51.898;-0.874;2023-06-22T07:24:21;8.20;;;4.70;;
46014;SDS011;36844;51.898;-0.874;2023-06-22T07:26:48;7.05;;;3.60;;
46014;SDS011;36844;51.898;-0.874;2023-06-22T07:29:14;7.93;;;4.35;;
46014;SDS011;36844;51.898;-0.874;2023-06-22T07:31:40;7.50;;;4.40;;
46014;SDS011;36844;51.898;-0.874;2023-06-22T07:34:06;8.07;;;4.88;;
46014;SDS011;36844;51.898;-0.874;2023-06-22T07:36:31;6.22;;;4.60;;
46014;SDS011;36844;51.898;-0.874;2023-06-22T07:38:57;5.70;;;4.20;;
46014;SDS011;36844;51.898;-0.874;2023-06-22T07:41:22;8.13;;;4.47;;
46014;SDS011;36844;51.898;-0.874;2023-06-22T07:43:47;7.30;;;4.13;;
46014;SDS011;36844;51.898;-0.874;2023-06-22T07:46:13;5.82;;;4.30;;
46014;SDS011;36844;51.898;-0.874;2023-06-22T07:48:38;8.65;;;4.63;;
46014;SDS011;36844;51.898;-0.874;2023-06-22T07:51:04;16.50;;;4.97;;
46014;SDS011;36844;51.898;-0.874;2023-06-22T07:53:30;7.00;;;4.93;;
46014;SDS011;36844;51.898;-0.874;2023-06-22T07:55:55;7.75;;;4.72;;
46014;SDS011;36844;51.898;-0.874;2023-06-22T07:58:21;6.78;;;4.00;;
46014;SDS011;36844;51.898;-0.874;2023-06-22T08:00:46;6.13;;;3.78;;
46014;SDS011;36844;51.898;-0.874;2023-06-22T08:03:12;6.43;;;3.80;;
46014;SDS011;36844;51.898;-0.874;2023-06-22T08:05:38;6.00;;;4.25;;
46014;SDS011;36844;51.898;-0.874;2023-06-22T08:08:03;5.53;;;4.45;;
46014;SDS011;36844;51.898;-0.874;2023-06-22T08:10:29;4.47;;;3.47;;
46014;SDS011;36844;51.898;-0.874;2023-06-22T08:12:54;6.13;;;3.55;;
46014;SDS011;36844;51.898;-0.874;2023-06-22T08:15:19;7.35;;;3.90;;
46014;SDS011;36844;51.898;-0.874;2023-06-22T08:17:45;6.38;;;4.18;;
46014;SDS011;36844;51.898;-0.874;2023-06-22T08:20:11;6.70;;;3.50;;
46014;SDS011;36844;51.898;-0.874;2023-06-22T08:22:37;9.98;;;3.90;;
46014;SDS011;36844;51.898;-0.874;2023-06-22T08:25:03;6.22;;;3.58;;
46014;SDS011;36844;51.898;-0.874;2023-06-22T08:27:29;3.38;;;2.97;;
46014;SDS011;36844;51.898;-0.874;2023-06-22T08:29:58;5.03;;;3.33;;
46014;SDS011;36844;51.898;-0.874;2023-06-22T08:32:24;6.40;;;3.88;;
46014;SDS011;36844;51.898;-0.874;2023-06-22T08:34:51;4.20;;;2.80;;
46014;SDS011;36844;51.898;-0.874;2023-06-22T08:37:18;4.85;;;3.17;;
46014;SDS011;36844;51.898;-0.874;2023-06-22T08:39:43;6.28;;;3.13;;
46014;SDS011;36844;51.898;-0.874;2023-06-22T08:42:08;3.60;;;2.92;;
46014;SDS011;36844;51.898;-0.874;2023-06-22T08:44:34;4.60;;;2.78;;
46014;SDS011;36844;51.898;-0.874;2023-06-22T08:46:59;5.70;;;2.65;;
46014;SDS011;36844;51.898;-0.874;2023-06-22T08:49:24;6.25;;;3.15;;
46014;SDS011;36844;51.898;-0.874;2023-06-22T08:51:50;6.35;;;2.92;;
46014;SDS011;36844;51.898;-0.874;2023-06-22T08:54:17;4.32;;;2.78;;
46014;SDS011;36844;51.898;-0.874;2023-06-22T08:56:42;4.65;;;3.17;;
46014;SDS011;36844;51.898;-0.874;2023-06-22T08:59:09;5.68;;;3.53;;
46014;SDS011;36844;51.898;-0.874;2023-06-22T09:01:34;5.18;;;2.90;;
46014;SDS011;36844;51.898;-0.874;2023-06-22T09:03:59;4.07;;;2.90;;
46014;SDS011;36844;51.898;-0.874;2023-06-22T09:06:25;4.32;;;2.58;;
46014;SDS011;36844;51.898;-0.874;2023-06-22T09:08:50;2.90;;;2.47;;
46014;SDS011;36844;51.898;-0.874;2023-06-22T09:11:16;2.95;;;2.63;;
46014;SDS011;36844;51.898;-0.874;2023-06-22T09:13:41;4.10;;;2.53;;
46014;SDS011;36844;51.898;-0.874;2023-06-22T09:16:07;4.70;;;3.00;;
46014;SDS011;36844;51.898;-0.874;2023-06-22T09:18:33;3.67;;;2.65;;
46014;SDS011;36844;51.898;-0.874;2023-06-22T09:20:59;3.35;;;2.58;;
46014;SDS011;36844;51.898;-0.874;2023-06-22T09:23:24;3.25;;;2.60;;
46014;SDS011;36844;51.898;-0.874;2023-06-22T09:25:50;5.28;;;2.13;;
46014;SDS011;36844;51.898;-0.874;2023-06-22T09:28:15;3.33;;;1.98;;
46014;SDS011;36844;51.898;-0.874;2023-06-22T09:30:42;19.45;;;3.35;;
46014;SDS011;36844;51.898;-0.874;2023-06-22T09:33:09;5.07;;;2.67;;
46014;SDS011;36844;51.898;-0.874;2023-06-22T09:35:34;3.17;;;2.47;;
46014;SDS011;36844;51.898;-0.874;2023-06-22T09:37:59;6.60;;;2.50;;
46014;SDS011;36844;51.898;-0.874;2023-06-22T09:40:25;4.72;;;2.33;;
46014;SDS011;36844;51.898;-0.874;2023-06-22T09:42:50;5.25;;;2.75;;
46014;SDS011;36844;51.898;-0.874;2023-06-22T09:45:15;4.05;;;2.30;;
46014;SDS011;36844;51.898;-0.874;2023-06-22T09:47:40;3.35;;;2.55;;
46014;SDS011;36844;51.898;-0.874;2023-06-22T09:50:07;3.28;;;2.50;;
46014;SDS011;36844;51.898;-0.874;2023-06-22T09:52:33;3.47;;;2.30;;
46014;SDS011;36844;51.898;-0.874;2023-06-22T09:54:58;4.78;;;3.00;;
46014;SDS011;36844;51.898;-0.874;2023-06-22T09:57:24;2.65;;;2.40;;
46014;SDS011;36844;51.898;-0.874;2023-06-22T09:59:49;3.47;;;2.55;;
46014;SDS011;36844;51.898;-0.874;2023-06-22T10:02:14;3.50;;;2.47;;
46014;SDS011;36844;51.898;-0.874;2023-06-22T10:04:40;5.45;;;2.95;;
46014;SDS011;36844;51.898;-0.874;2023-06-22T10:07:05;3.85;;;2.70;;
46014;SDS011;36844;51.898;-0.874;2023-06-22T10:09:31;2.90;;;2.20;;
46014;SDS011;36844;51.898;-0.874;2023-06-22T10:11:56;3.85;;;2.50;;
46014;SDS011;36844;51.898;-0.874;2023-06-22T10:14:22;5.93;;;2.47;;
46014;SDS011;36844;51.898;-0.874;2023-06-22T10:16:47;3.85;;;2.75;;
46014;SDS011;36844;51.898;-0.874;2023-06-22T10:19:13;3.63;;;2.42;;
46014;SDS011;36844;51.898;-0.874;2023-06-22T10:21:38;3.28;;;2.30;;
46014;SDS011;36844;51.898;-0.874;2023-06-22T10:24:04;3.03;;;2.22;;
46014;SDS011;36844;51.898;-0.874;2023-06-22T10:26:32;3.90;;;2.85;;
46014;SDS011;36844;51.898;-0.874;2023-06-22T10:28:58;5.50;;;2.75;;
46014;SDS011;36844;51.898;-0.874;2023-06-22T10:31:24;2.55;;;2.33;;
46014;SDS011;36844;51.898;-0.874;2023-06-22T10:33:50;4.20;;;2.67;;
46014;SDS011;36844;51.898;-0.874;2023-06-22T10:36:15;3.70;;;2.30;;
46014;SDS011;36844;51.898;-0.874;2023-06-22T10:38:40;4.75;;;2.33;;
46014;SDS011;36844;51.898;-0.874;2023-06-22T10:41:05;3.65;;;2.35;;
46014;SDS011;36844;51.898;-0.874;2023-06-22T10:43:31;3.00;;;2.25;;
46014;SDS011;36844;51.898;-0.874;2023-06-22T10:45:57;2.75;;;2.10;;
46014;SDS011;36844;51.898;-0.874;2023-06-22T10:48:22;4.32;;;2.47;;
46014;SDS011;36844;51.898;-0.874;2023-06-22T10:50:47;7.63;;;2.00;;
46014;SDS011;36844;51.898;-0.874;2023-06-22T10:53:12;3.95;;;2.03;;
46014;SDS011;36844;51.898;-0.874;2023-06-22T10:55:38;3.30;;;2.25;;
46014;SDS011;36844;51.898;-0.874;2023-06-22T10:58:03;5.13;;;2.13;;
46014;SDS011;36844;51.898;-0.874;2023-06-22T11:00:28;3.78;;;2.20;;
46014;SDS011;36844;51.898;-0.874;2023-06-22T11:02:54;5.78;;;2.30;;
46014;SDS011;36844;51.898;-0.874;2023-06-22T11:05:19;3.35;;;2.22;;
46014;SDS011;36844;51.898;-0.874;2023-06-22T11:07:44;5.50;;;2.83;;
46014;SDS011;36844;51.898;-0.874;2023-06-22T11:10:10;3.90;;;2.45;;
46014;SDS011;36844;51.898;-0.874;2023-06-22T11:12:37;5.30;;;2.30;;
46014;SDS011;36844;51.898;-0.874;2023-06-22T11:15:02;3.83;;;2.38;;
46014;SDS011;36844;51.898;-0.874;2023-06-22T11:17:28;4.22;;;2.63;;
46014;SDS011;36844;51.898;-0.874;2023-06-22T11:19:53;3.22;;;2.17;;
46014;SDS011;36844;51.898;-0.874;2023-06-22T11:22:18;5.85;;;2.55;;
46014;SDS011;36844;51.898;-0.874;2023-06-22T11:24:44;4.20;;;2.08;;
46014;SDS011;36844;51.898;-0.874;2023-06-22T11:27:09;2.58;;;2.22;;
46014;SDS011;36844;51.898;-0.874;2023-06-22T11:29:34;4.75;;;2.58;;
46014;SDS011;36844;51.898;-0.874;2023-06-22T11:32:00;2.80;;;2.20;;
46014;SDS011;36844;51.898;-0.874;2023-06-22T11:34:26;3.28;;;1.85;;
46014;SDS011;36844;51.898;-0.874;2023-06-22T11:36:51;3.78;;;2.55;;
46014;SDS011;36844;51.898;-0.874;2023-06-22T11:39:16;2.25;;;1.75;;
46014;SDS011;36844;51.898;-0.874;2023-06-22T11:41:42;3.78;;;2.30;;
46014;SDS011;36844;51.898;-0.874;2023-06-22T11:44:07;2.50;;;2.28;;
46014;SDS011;36844;51.898;-0.874;2023-06-22T11:46:33;3.13;;;2.67;;
46014;SDS011;36844;51.898;-0.874;2023-06-22T11:48:59;3.35;;;2.40;;
46014;SDS011;36844;51.898;-0.874;2023-06-22T11:51:25;3.47;;;2.05;;
46014;SDS011;36844;51.898;-0.874;2023-06-22T11:53:50;2.83;;;2.10;;
46014;SDS011;36844;51.898;-0.874;2023-06-22T11:56:16;4.03;;;2.25;;
46014;SDS011;36844;51.898;-0.874;2023-06-22T11:58:41;3.10;;;2.17;;
46014;SDS011;36844;51.898;-0.874;2023-06-22T12:01:06;3.60;;;2.55;;
46014;SDS011;36844;51.898;-0.874;2023-06-22T12:03:32;3.28;;;2.22;;
46014;SDS011;36844;51.898;-0.874;2023-06-22T12:05:57;4.25;;;2.35;;
46014;SDS011;36844;51.898;-0.874;2023-06-22T12:08:22;4.15;;;2.03;;
46014;SDS011;36844;51.898;-0.874;2023-06-22T12:10:49;3.55;;;2.20;;
46014;SDS011;36844;51.898;-0.874;2023-06-22T12:13:15;2.88;;;2.38;;
46014;SDS011;36844;51.898;-0.874;2023-06-22T12:15:40;2.80;;;1.98;;
46014;SDS011;36844;51.898;-0.874;2023-06-22T12:18:05;2.88;;;2.15;;
46014;SDS011;36844;51.898;-0.874;2023-06-22T12:20:30;2.97;;;2.15;;
46014;SDS011;36844;51.898;-0.874;2023-06-22T12:22:56;3.00;;;1.73;;
46014;SDS011;36844;51.898;-0.874;2023-06-22T12:25:23;3.22;;;2.30;;
46014;SDS011;36844;51.898;-0.874;2023-06-22T12:27:48;3.25;;;2.20;;
46014;SDS011;36844;51.898;-0.874;2023-06-22T12:30:15;3.03;;;2.22;;
46014;SDS011;36844;51.898;-0.874;2023-06-22T12:32:41;3.35;;;2.72;;
46014;SDS011;36844;51.898;-0.874;2023-06-22T12:35:06;2.80;;;2.10;;
46014;SDS011;36844;51.898;-0.874;2023-06-22T12:37:36;2.97;;;2.30;;
46014;SDS011;36844;51.898;-0.874;2023-06-22T12:40:02;3.05;;;2.75;;
46014;SDS011;36844;51.898;-0.874;2023-06-22T12:42:28;2.40;;;2.05;;
46014;SDS011;36844;51.898;-0.874;2023-06-22T12:44:54;3.22;;;2.20;;
46014;SDS011;36844;51.898;-0.874;2023-06-22T12:47:19;3.75;;;2.45;;
46014;SDS011;36844;51.898;-0.874;2023-06-22T12:49:45;4.57;;;2.60;;
46014;SDS011;36844;51.898;-0.874;2023-06-22T12:52:10;2.30;;;2.10;;
46014;SDS011;36844;51.898;-0.874;2023-06-22T12:54:38;4.32;;;2.20;;
46014;SDS011;36844;51.898;-0.874;2023-06-22T12:57:03;3.40;;;2.65;;
46014;SDS011;36844;51.898;-0.874;2023-06-22T12:59:29;2.53;;;2.08;;
46014;SDS011;36844;51.898;-0.874;2023-06-22T13:01:54;3.35;;;2.20;;
46014;SDS011;36844;51.898;-0.874;2023-06-22T13:04:20;3.20;;;1.98;;
46014;SDS011;36844;51.898;-0.874;2023-06-22T13:06:46;3.95;;;2.45;;
46014;SDS011;36844;51.898;-0.874;2023-06-22T13:09:13;4.15;;;2.08;;
46014;SDS011;36844;51.898;-0.874;2023-06-22T13:11:43;2.40;;;2.15;;
46014;SDS011;36844;51.898;-0.874;2023-06-22T13:14:08;2.92;;;2.25;;
46014;SDS011;36844;51.898;-0.874;2023-06-22T13:16:33;2.92;;;2.03;;
46014;SDS011;36844;51.898;-0.874;2023-06-22T13:18:59;5.85;;;2.30;;
46014;SDS011;36844;51.898;-0.874;2023-06-22T13:21:24;3.75;;;1.95;;
46014;SDS011;36844;51.898;-0.874;2023-06-22T13:23:49;2.72;;;2.25;;
46014;SDS011;36844;51.898;-0.874;2023-06-22T13:26:15;4.35;;;1.98;;
46014;SDS011;36844;51.898;-0.874;2023-06-22T13:28:40;2.55;;;2.22;;
46014;SDS011;36844;51.898;-0.874;2023-06-22T13:31:05;4.13;;;2.35;;
46014;SDS011;36844;51.898;-0.874;2023-06-22T13:33:31;3.28;;;1.88;;
46014;SDS011;36844;51.898;-0.874;2023-06-22T13:35:56;3.33;;;2.15;;
46014;SDS011;36844;51.898;-0.874;2023-06-22T13:38:21;3.20;;;2.05;;
46014;SDS011;36844;51.898;-0.874;2023-06-22T13:40:47;3.35;;;2.08;;
46014;SDS011;36844;51.898;-0.874;2023-06-22T13:43:13;3.25;;;2.10;;
46014;SDS011;36844;51.898;-0.874;2023-06-22T13:45:38;4.63;;;2.30;;
46014;SDS011;36844;51.898;-0.874;2023-06-22T13:48:04;7.60;;;2.22;;
46014;SDS011;36844;51.898;-0.874;2023-06-22T13:50:29;4.07;;;3.20;;
46014;SDS011;36844;51.898;-0.874;2023-06-22T13:52:55;2.60;;;1.92;;
46014;SDS011;36844;51.898;-0.874;2023-06-22T13:55:20;3.55;;;2.35;;
46014;SDS011;36844;51.898;-0.874;2023-06-22T13:57:46;2.45;;;2.00;;
46014;SDS011;36844;51.898;-0.874;2023-06-22T14:00:11;4.03;;;2.15;;
46014;SDS011;36844;51.898;-0.874;2023-06-22T14:02:37;3.53;;;2.08;;
46014;SDS011;36844;51.898;-0.874;2023-06-22T14:05:03;2.20;;;2.00;;
46014;SDS011;36844;51.898;-0.874;2023-06-22T14:07:28;3.55;;;2.33;;
46014;SDS011;36844;51.898;-0.874;2023-06-22T14:09:54;4.07;;;2.30;;
46014;SDS011;36844;51.898;-0.874;2023-06-22T14:12:19;3.67;;;2.10;;
46014;SDS011;36844;51.898;-0.874;2023-06-22T14:14:44;3.10;;;2.20;;
46014;SDS011;36844;51.898;-0.874;2023-06-22T14:17:10;2.92;;;2.30;;
46014;SDS011;36844;51.898;-0.874;2023-06-22T14:19:35;2.90;;;2.08;;
46014;SDS011;36844;51.898;-0.874;2023-06-22T14:22:01;2.85;;;1.88;;
46014;SDS011;36844;51.898;-0.874;2023-06-22T14:24:26;3.13;;;2.22;;
46014;SDS011;36844;51.898;-0.874;2023-06-22T14:26:52;3.67;;;1.98;;
46014;SDS011;36844;51.898;-0.874;2023-06-22T14:29:17;3.25;;;2.35;;
46014;SDS011;36844;51.898;-0.874;2023-06-22T14:31:44;2.13;;;1.83;;
46014;SDS011;36844;51.898;-0.874;2023-06-22T14:34:10;8.50;;;2.65;;